Time;durP1;ratioP1;P1;durP2;ratioP2;P2;SDS_P1;SDS_P2;PMS_P1;PMS_P2;Temp;Humidity;BMP_temperature;BMP_pressure;BME280_temperature;BME280_humidity;BME280_pressure;Samples;Min_cycle;Max_cycle;Signal;HPM_P1;HPM_P2
2024/04/15 00:00:10;;;;;;;5.40;3.97;;;;;;;12.89;100.00;95965.59;1089355;27;20331;-71
2024/04/15 00:00:40;;;;;;;10.13;4.20;;;;;;;12.95;100.00;95958.47;1096133;26;20419;-71
2024/04/15 00:01:11;;;;;;;7.47;4.15;;;;;;;13.11;100.00;95964.41;1096699;26;20001;-71
2024/04/15 00:01:41;;;;;;;8.60;4.25;;;;;;;13.15;100.00;95955.72;1096325;27;19993;-70
2024/04/15 00:02:12;;;;;;;6.28;4.40;;;;;;;13.21;100.00;95951.16;1089339;27;20346;-72
2024/04/15 00:02:42;;;;;;;10.60;4.40;;;;;;;13.17;100.00;95945.66;1101276;26;20099;-71
2024/04/15 00:03:12;;;;;;;7.30;4.07;;;;;;;13.21;100.00;95946.72;1103801;26;19997;-71
2024/04/15 00:03:43;;;;;;;6.78;3.75;;;;;;;13.23;100.00;95959.59;1096634;26;19993;-71
2024/04/15 00:04:13;;;;;;;6.05;4.47;;;;;;;13.22;100.00;95944.84;1096277;26;20006;-71
2024/04/15 00:04:44;;;;;;;5.65;4.25;;;;;;;13.33;100.00;95946.38;1082574;27;20458;-71
2024/04/15 00:05:14;;;;;;;8.25;4.57;;;;;;;13.36;100.00;95942.41;1089643;27;20009;-72
2024/04/15 00:05:45;;;;;;;4.13;3.70;;;;;;;13.44;100.00;95937.34;1092498;27;20002;-71
2024/04/15 00:06:15;;;;;;;5.55;3.97;;;;;;;13.48;100.00;95934.16;1098334;26;20052;-71
2024/04/15 00:06:45;;;;;;;4.93;3.78;;;;;;;13.47;100.00;95922.03;1103435;26;20554;-71
2024/04/15 00:07:16;;;;;;;5.28;3.90;;;;;;;13.53;100.00;95920.94;1110449;26;20416;-71
2024/04/15 00:07:49;;;;;;;7.18;3.90;;;;;;;13.55;100.00;95924.88;1103357;26;20001;-72
2024/04/15 00:08:19;;;;;;;5.40;4.07;;;;;;;13.54;100.00;95918.00;1097004;26;20603;-72
2024/04/15 00:08:50;;;;;;;6.45;3.83;;;;;;;13.50;100.00;95906.47;1097051;26;19989;-72
2024/04/15 00:09:20;;;;;;;5.63;4.15;;;;;;;13.54;100.00;95917.22;1089106;27;20109;-71
2024/04/15 00:09:51;;;;;;;6.78;4.20;;;;;;;13.49;100.00;95907.53;1088722;27;20548;-71
2024/04/15 00:10:21;;;;;;;7.45;4.00;;;;;;;13.54;100.00;95904.06;1089267;27;20864;-72
2024/04/15 00:10:52;;;;;;;5.80;3.85;;;;;;;13.49;100.00;95898.84;1096123;27;20016;-72
2024/04/15 00:11:22;;;;;;;9.43;3.65;;;;;;;13.53;100.00;95891.94;1096666;26;20069;-72
2024/04/15 00:11:53;;;;;;;9.07;4.00;;;;;;;13.57;100.00;95896.38;1096234;27;20004;-71
2024/04/15 00:12:23;;;;;;;4.93;4.28;;;;;;;13.51;100.00;95891.41;1096306;27;19997;-71
2024/04/15 00:12:54;;;;;;;4.65;3.55;;;;;;;13.56;100.00;95894.03;1096330;26;20009;-72
2024/04/15 00:13:24;;;;;;;6.13;3.72;;;;;;;13.53;100.00;95898.00;1103839;26;19989;-71
2024/04/15 00:13:54;;;;;;;6.05;4.55;;;;;;;13.53;100.00;95898.00;1118185;26;19999;-71
2024/04/15 00:14:25;;;;;;;4.30;3.88;;;;;;;13.50;100.00;95889.84;1117897;26;19991;-71
2024/04/15 00:14:55;;;;;;;5.95;4.00;;;;;;;13.42;100.00;95878.84;1103422;26;20519;-71
2024/04/15 00:15:26;;;;;;;5.50;4.25;;;;;;;13.41;100.00;95877.28;1089564;27;20095;-71
2024/04/15 00:15:57;;;;;;;8.65;4.10;;;;;;;13.35;100.00;95870.47;1089280;27;20013;-71
2024/04/15 00:16:27;;;;;;;4.88;3.67;;;;;;;13.37;100.00;95873.59;1089430;27;19994;-71
2024/04/15 00:16:58;;;;;;;6.03;4.05;;;;;;;13.33;100.00;95875.22;1102393;26;19996;-71
2024/04/15 00:17:28;;;;;;;6.88;4.00;;;;;;;13.39;100.00;95883.88;1096545;27;19997;-71
2024/04/15 00:17:58;;;;;;;6.82;4.03;;;;;;;13.41;100.00;95876.47;1096327;26;20005;-71
2024/04/15 00:18:29;;;;;;;6.22;4.25;;;;;;;13.42;100.00;95859.63;1103547;26;20047;-73
2024/04/15 00:18:59;;;;;;;8.73;4.10;;;;;;;13.43;100.00;95867.22;1104342;26;20009;-71
2024/04/15 00:19:30;;;;;;;6.03;3.72;;;;;;;13.45;100.00;95861.69;1112859;26;20425;-71
2024/04/15 00:20:00;;;;;;;9.05;3.72;;;;;;;13.48;100.00;95857.69;1110424;26;20371;-72
2024/04/15 00:20:31;;;;;;;4.95;3.78;;;;;;;13.47;100.00;95842.97;1110755;26;20477;-72
2024/04/15 00:21:02;;;;;;;5.13;3.40;;;;;;;13.45;100.00;95830.06;1103521;26;20380;-71
2024/04/15 00:21:33;;;;;;;8.38;3.78;;;;;;;13.52;100.00;95830.53;1110282;26;20040;-70
2024/04/15 00:22:03;;;;;;;4.90;3.67;;;;;;;13.53;100.00;95818.13;1103556;26;19993;-71
2024/04/15 00:22:34;;;;;;;5.00;3.92;;;;;;;13.57;100.00;95814.63;1090353;26;20421;-71
2024/04/15 00:23:04;;;;;;;6.75;4.05;;;;;;;13.59;100.00;95811.75;1103855;26;19993;-71
2024/04/15 00:23:35;;;;;;;7.05;3.33;;;;;;;13.54;100.00;95801.22;1103778;26;19997;-72
2024/04/15 00:24:05;;;;;;;5.10;3.83;;;;;;;13.59;100.00;95801.97;1090570;27;20006;-72
2024/04/15 00:24:36;;;;;;;5.65;4.13;;;;;;;13.55;100.00;95792.28;1083301;27;19999;-72
2024/04/15 00:25:06;;;;;;;8.15;4.40;;;;;;;13.54;100.00;95795.97;1076117;27;19996;-71
2024/04/15 00:25:37;;;;;;;6.00;3.50;;;;;;;13.58;100.00;95786.41;1083828;27;20021;-71
2024/04/15 00:26:07;;;;;;;9.60;4.15;;;;;;;13.60;100.00;95800.13;1089606;27;20006;-71
2024/04/15 00:26:37;;;;;;;4.40;3.47;;;;;;;13.58;100.00;95786.41;1096031;27;20020;-71
2024/04/15 00:27:08;;;;;;;5.47;3.83;;;;;;;13.59;100.00;95791.44;1096438;26;20009;-72
2024/04/15 00:27:38;;;;;;;6.28;4.15;;;;;;;13.55;100.00;95782.50;1102041;26;20057;-72
2024/04/15 00:28:09;;;;;;;5.55;3.83;;;;;;;13.60;100.00;95782.44;1089306;27;19998;-72
2024/04/15 00:28:39;;;;;;;3.67;3.10;;;;;;;13.59;100.00;95778.25;1105222;26;20000;-72
2024/04/15 00:29:10;;;;;;;6.85;3.42;;;;;;;13.59;100.00;95785.38;1103461;26;20004;-72
2024/04/15 00:29:40;;;;;;;9.65;3.40;;;;;;;13.54;100.00;95769.59;1088268;27;19994;-71
2024/04/15 00:30:11;;;;;;;4.70;3.75;;;;;;;13.52;100.00;95763.84;1082146;27;20010;-72
2024/04/15 00:30:46;;;;;;;4.45;3.03;;;;;;;13.58;100.00;95760.06;1084871;27;19999;-71
2024/04/15 00:31:17;;;;;;;5.68;3.10;;;;;;;13.59;100.00;95754.50;1097424;26;19994;-71
2024/04/15 00:31:47;;;;;;;4.18;2.97;;;;;;;13.63;100.00;95752.09;1098909;26;20688;-72
2024/04/15 00:32:18;;;;;;;3.70;2.92;;;;;;;13.61;100.00;95743.69;1103736;26;19997;-71
2024/04/15 00:32:48;;;;;;;3.08;2.72;;;;;;;13.60;100.00;95737.63;1092449;27;20002;-71
2024/04/15 00:33:20;;;;;;;4.28;3.00;;;;;;;13.62;100.00;95735.50;1094496;26;20001;-72
2024/04/15 00:33:50;;;;;;;3.03;2.65;;;;;;;13.60;100.00;95729.72;1111160;26;20463;-72
2024/04/15 00:34:22;;;;;;;5.00;2.80;;;;;;;13.76;100.00;95719.78;1111287;26;20007;-71
2024/04/15 00:34:52;;;;;;;3.22;2.55;;;;;;;13.84;100.00;95705.16;1116966;26;20088;-71
2024/04/15 00:35:22;;;;;;;4.25;2.95;;;;;;;14.07;100.00;95698.25;1103071;26;20008;-71
2024/04/15 00:35:53;;;;;;;3.00;2.70;;;;;;;14.00;100.00;95693.34;1089650;27;20002;-72
2024/04/15 00:36:23;;;;;;;5.07;2.53;;;;;;;13.98;100.00;95682.28;1096234;26;20056;-73
2024/04/15 00:36:54;;;;;;;5.40;2.70;;;;;;;14.14;100.00;95674.94;1103461;26;20008;-71
2024/04/15 00:37:24;;;;;;;3.15;2.30;;;;;;;14.17;100.00;95669.09;1110602;26;20008;-72
2024/04/15 00:37:55;;;;;;;3.97;3.05;;;;;;;14.22;100.00;95665.59;1103281;26;20012;-71
2024/04/15 00:38:25;;;;;;;3.85;3.10;;;;;;;14.20;100.00;95660.59;1103555;26;20063;-71
2024/04/15 00:38:56;;;;;;;5.90;2.75;;;;;;;14.28;100.00;95657.31;1112090;26;20814;-71
2024/04/15 00:39:26;;;;;;;3.47;2.45;;;;;;;14.32;100.00;95653.03;1110518;26;20011;-72
2024/04/15 00:39:57;;;;;;;5.32;2.70;;;;;;;14.43;100.00;95637.81;1116206;26;20011;-71
2024/04/15 00:40:27;;;;;;;4.20;2.80;;;;;;;14.46;100.00;95647.03;1110750;26;20848;-71
2024/04/15 00:40:58;;;;;;;6.95;2.92;;;;;;;14.41;100.00;95633.91;1103355;26;20012;-72
2024/04/15 00:41:28;;;;;;;3.00;2.33;;;;;;;14.39;100.00;95645.53;1096080;26;19997;-72
2024/04/15 00:41:58;;;;;;;4.13;2.80;;;;;;;14.38;100.00;95640.53;1096203;26;19998;-71
2024/04/15 00:42:29;;;;;;;4.75;2.67;;;;;;;14.38;100.00;95646.63;1096404;26;20067;-71
2024/04/15 00:43:00;;;;;;;4.28;3.00;;;;;;;14.39;100.00;95640.25;1110239;26;20000;-71
2024/04/15 00:43:30;;;;;;;5.78;3.25;;;;;;;14.37;100.00;95636.31;1103150;26;20452;-71
2024/04/15 00:44:01;;;;;;;5.50;2.83;;;;;;;14.35;100.00;95633.19;1096288;27;20412;-71
2024/04/15 00:44:32;;;;;;;3.38;2.95;;;;;;;14.38;100.00;95646.63;1096314;27;20016;-71
2024/04/15 00:45:02;;;;;;;3.80;2.83;;;;;;;14.34;100.00;95644.81;1092551;26;19999;-72
2024/04/15 00:45:33;;;;;;;5.80;3.42;;;;;;;14.37;100.00;95645.03;1103668;26;20037;-71
2024/04/15 00:46:04;;;;;;;3.63;2.75;;;;;;;14.29;100.00;95637.78;1103490;26;20464;-72
2024/04/15 00:46:34;;;;;;;4.70;2.67;;;;;;;14.27;100.00;95639.13;1096130;27;19994;-72
2024/04/15 00:47:04;;;;;;;6.47;3.17;;;;;;;14.32;100.00;95645.13;1096631;26;19990;-71
2024/04/15 00:47:35;;;;;;;4.20;2.90;;;;;;;14.29;100.00;95632.50;1096486;26;20034;-71
2024/04/15 00:48:07;;;;;;;4.03;2.58;;;;;;;14.29;100.00;95640.41;1103343;26;19997;-71
2024/04/15 00:48:37;;;;;;;4.45;2.65;;;;;;;14.26;100.00;95642.84;1096181;26;20009;-71
2024/04/15 00:49:09;;;;;;;4.82;2.90;;;;;;;14.23;100.00;95643.41;1089267;27;20456;-71
2024/04/15 00:49:39;;;;;;;4.28;3.25;;;;;;;14.23;100.00;95646.84;1088406;27;19994;-71
2024/04/15 00:50:10;;;;;;;4.72;3.00;;;;;;;14.22;100.00;95639.19;1103254;26;20402;-71
2024/04/15 00:50:40;;;;;;;3.67;2.88;;;;;;;14.22;100.00;95637.38;1110702;26;19996;-72
2024/04/15 00:51:11;;;;;;;4.75;2.95;;;;;;;14.18;100.00;95646.91;1110780;26;20715;-72
2024/04/15 00:51:41;;;;;;;4.18;3.05;;;;;;;14.17;100.00;95644.56;1091317;27;20564;-72
2024/04/15 00:52:12;;;;;;;5.75;2.95;;;;;;;14.14;100.00;95645.91;1089008;27;20473;-71
2024/04/15 00:52:42;;;;;;;5.80;3.08;;;;;;;14.13;100.00;95645.13;1088901;27;20006;-71
2024/04/15 00:53:14;;;;;;;5.45;3.00;;;;;;;14.10;100.00;95650.22;1089470;27;19994;-71
2024/04/15 00:53:45;;;;;;;4.32;3.40;;;;;;;14.05;100.00;95652.91;1096504;26;20037;-72
2024/04/15 00:54:15;;;;;;;4.95;3.45;;;;;;;14.05;100.00;95658.19;1095382;26;20869;-70
2024/04/15 00:54:46;;;;;;;5.78;3.28;;;;;;;13.98;100.00;95653.25;1089007;27;20077;-72
2024/04/15 00:55:16;;;;;;;4.60;3.35;;;;;;;13.99;100.00;95656.72;1096139;27;20047;-71
2024/04/15 00:55:47;;;;;;;6.57;3.13;;;;;;;13.96;100.00;95659.91;1096370;27;20469;-71
2024/04/15 00:56:20;;;;;;;4.18;3.20;;;;;;;13.89;100.00;95653.13;1096087;27;20535;-71
2024/04/15 00:56:50;;;;;;;4.03;2.97;;;;;;;13.90;100.00;95669.75;1082120;27;20672;-71
2024/04/15 00:57:21;;;;;;;6.07;3.55;;;;;;;13.85;100.00;95670.59;1089258;27;20007;-72
2024/04/15 00:57:51;;;;;;;6.72;3.33;;;;;;;13.82;100.00;95668.53;1110734;26;20003;-71
2024/04/15 00:58:22;;;;;;;7.05;3.78;;;;;;;13.79;100.00;95679.66;1096604;26;20002;-71
2024/04/15 00:58:52;;;;;;;6.03;3.17;;;;;;;13.77;100.00;95673.88;1096235;27;20006;-72
2024/04/15 00:59:23;;;;;;;3.28;2.97;;;;;;;13.70;100.00;95672.66;1096320;27;20013;-71
2024/04/15 00:59:54;;;;;;;5.93;3.28;;;;;;;13.66;100.00;95667.94;1088484;27;20072;-71
2024/04/15 01:00:24;;;;;;;7.22;3.20;;;;;;;13.66;100.00;95677.72;1081102;27;20081;-71
2024/04/15 01:00:55;;;;;;;4.30;3.22;;;;;;;13.63;100.00;95673.78;1087494;27;20013;-71
2024/04/15 01:01:25;;;;;;;4.50;3.50;;;;;;;13.61;100.00;95670.63;1089564;27;20005;-71
2024/04/15 01:01:56;;;;;;;3.75;2.92;;;;;;;13.66;100.00;95677.72;1103456;26;20597;-72
2024/04/15 01:02:26;;;;;;;3.38;3.05;;;;;;;13.59;100.00;95672.78;1103283;26;20012;-72
2024/04/15 01:02:57;;;;;;;3.58;2.92;;;;;;;13.62;100.00;95677.50;1096301;27;20001;-71
2024/04/15 01:03:27;;;;;;;5.85;3.38;;;;;;;13.62;100.00;95680.13;1103496;26;19997;-71
2024/04/15 01:03:58;;;;;;;4.53;2.83;;;;;;;13.57;100.00;95674.13;1103541;26;20011;-71
2024/04/15 01:04:28;;;;;;;4.63;3.35;;;;;;;13.55;100.00;95668.38;1103382;26;20011;-71
2024/04/15 01:04:58;;;;;;;6.35;2.92;;;;;;;13.56;100.00;95678.63;1096417;26;20016;-71
2024/04/15 01:05:29;;;;;;;5.28;3.15;;;;;;;13.55;100.00;95677.06;1103731;26;19993;-72
2024/04/15 01:05:59;;;;;;;6.82;3.47;;;;;;;13.52;100.00;95676.84;1103228;26;20075;-71
2024/04/15 01:06:30;;;;;;;6.25;3.58;;;;;;;13.49;100.00;95674.75;1110938;26;20007;-72
2024/04/15 01:07:00;;;;;;;4.85;3.30;;;;;;;13.50;100.00;95676.31;1110607;26;20344;-71
2024/04/15 01:07:31;;;;;;;6.90;3.55;;;;;;;13.49;100.00;95680.03;1082174;27;20087;-71
2024/04/15 01:08:01;;;;;;;4.50;3.22;;;;;;;13.44;100.00;95680.88;1089189;27;20002;-71
2024/04/15 01:08:32;;;;;;;4.80;4.10;;;;;;;13.38;100.00;95674.88;1082158;27;20078;-71
2024/04/15 01:09:02;;;;;;;4.93;3.40;;;;;;;13.43;100.00;95682.72;1096446;26;20008;-71
2024/04/15 01:09:33;;;;;;;4.22;3.33;;;;;;;13.35;100.00;95672.81;1096960;26;20002;-70
2024/04/15 01:10:04;;;;;;;5.18;3.80;;;;;;;13.35;100.00;95675.44;1089634;26;20009;-71
2024/04/15 01:10:34;;;;;;;7.82;3.65;;;;;;;13.40;100.00;95683.28;1082659;27;20340;-71
2024/04/15 01:11:05;;;;;;;3.50;3.20;;;;;;;13.36;100.00;95692.81;1081939;27;20546;-71
2024/04/15 01:11:35;;;;;;;5.80;3.42;;;;;;;13.37;100.00;95685.69;1089422;27;19994;-71
2024/04/15 01:12:06;;;;;;;4.90;3.80;;;;;;;13.29;100.00;95673.16;1096463;27;20075;-72
2024/04/15 01:12:36;;;;;;;4.97;3.88;;;;;;;13.29;100.00;95695.00;1088847;27;20005;-71
2024/04/15 01:13:07;;;;;;;7.45;3.30;;;;;;;13.22;100.00;95684.00;1082706;27;20052;-71
2024/04/15 01:13:37;;;;;;;4.47;3.20;;;;;;;13.25;100.00;95682.69;1089238;27;19994;-72
2024/04/15 01:14:07;;;;;;;4.18;3.25;;;;;;;13.26;100.00;95689.53;1089426;27;20466;-71
2024/04/15 01:14:38;;;;;;;4.57;3.22;;;;;;;13.28;100.00;95690.81;1103298;26;20898;-71
2024/04/15 01:15:08;;;;;;;4.65;3.45;;;;;;;13.26;100.00;95695.56;1103594;26;20416;-71
2024/04/15 01:15:39;;;;;;;7.15;3.30;;;;;;;13.17;100.00;95689.31;1110722;26;20460;-71
2024/04/15 01:16:09;;;;;;;8.00;3.80;;;;;;;13.17;100.00;95691.94;1103597;26;20352;-71
2024/04/15 01:16:40;;;;;;;4.38;3.28;;;;;;;13.12;100.00;95690.16;1096202;27;19993;-71
2024/04/15 01:17:11;;;;;;;7.15;3.72;;;;;;;13.16;100.00;95695.66;1089304;27;20017;-72
2024/04/15 01:17:42;;;;;;;5.35;3.55;;;;;;;13.15;100.00;95699.34;1098196;26;20088;-71
2024/04/15 01:18:12;;;;;;;4.75;3.72;;;;;;;13.13;100.00;95696.22;1103659;26;20021;-71
2024/04/15 01:18:43;;;;;;;5.25;3.28;;;;;;;13.11;100.00;95695.69;1108540;26;20011;-72
2024/04/15 01:19:13;;;;;;;5.00;3.42;;;;;;;13.09;100.00;95700.47;1103661;26;20020;-71
2024/04/15 01:19:44;;;;;;;4.90;3.67;;;;;;;13.05;100.00;95696.81;1110452;26;20358;-71
2024/04/15 01:20:14;;;;;;;6.25;3.25;;;;;;;13.03;100.00;95697.09;1110658;26;20008;-71
2024/04/15 01:20:44;;;;;;;5.78;3.78;;;;;;;13.06;100.00;95706.28;1103450;26;20007;-71
2024/04/15 01:21:15;;;;;;;5.60;3.67;;;;;;;13.03;100.00;95706.84;1110522;26;19993;-72
2024/04/15 01:21:45;;;;;;;4.30;3.67;;;;;;;12.99;100.00;95714.53;1117824;26;19995;-71
2024/04/15 01:22:19;;;;;;;5.03;3.90;;;;;;;12.97;100.00;95706.09;1103534;26;20067;-72
2024/04/15 01:23:10;;;;;;;9.35;3.90;;;;;;;12.94;100.00;95715.38;1114575;26;20359;-71
2024/04/15 01:23:46;;;;;;;5.55;3.60;;;;;;;12.89;100.00;95707.50;1096125;26;20001;-71
2024/04/15 01:24:17;;;;;;;4.43;3.45;;;;;;;12.86;100.00;95713.31;1103351;26;20001;-72
2024/04/15 01:24:48;;;;;;;5.68;3.60;;;;;;;12.84;100.00;95709.38;1096077;27;20005;-71
2024/04/15 01:25:19;;;;;;;4.85;3.58;;;;;;;12.85;100.00;95708.34;1096232;27;20008;-71
2024/04/15 01:25:49;;;;;;;7.13;3.47;;;;;;;12.78;100.00;95703.38;1089086;27;20617;-71
2024/04/15 01:26:20;;;;;;;4.38;3.08;;;;;;;12.79;100.00;95715.50;1089051;27;20013;-71
2024/04/15 01:26:50;;;;;;;6.85;3.38;;;;;;;12.81;100.00;95716.00;1089344;26;20406;-71
2024/04/15 01:27:21;;;;;;;3.97;3.55;;;;;;;12.80;100.00;95703.88;1103344;26;20056;-71
2024/04/15 01:27:51;;;;;;;4.97;3.47;;;;;;;12.79;100.00;95712.84;1108073;26;20029;-71
2024/04/15 01:28:22;;;;;;;7.38;3.30;;;;;;;12.85;100.00;95705.72;1110599;26;20446;-71
2024/04/15 01:28:52;;;;;;;5.07;3.50;;;;;;;12.87;100.00;95701.72;1103307;26;20020;-71
2024/04/15 01:29:23;;;;;;;3.58;2.90;;;;;;;12.86;100.00;95697.50;1089037;27;19999;-72
2024/04/15 01:29:54;;;;;;;4.38;3.30;;;;;;;12.86;100.00;95694.88;1088343;27;20014;-71
2024/04/15 01:30:24;;;;;;;4.43;3.10;;;;;;;12.91;100.00;95686.94;1096398;26;20112;-71
2024/04/15 01:30:54;;;;;;;4.97;3.42;;;;;;;12.84;100.00;95681.19;1096583;26;20448;-70
2024/04/15 01:31:25;;;;;;;3.30;2.75;;;;;;;12.95;100.00;95687.94;1103248;26;20008;-72
2024/04/15 01:31:55;;;;;;;7.07;3.25;;;;;;;12.98;100.00;95671.59;1101558;26;20025;-71
2024/04/15 01:32:26;;;;;;;5.75;2.97;;;;;;;13.14;100.00;95672.19;1089321;27;20071;-71
2024/04/15 01:32:57;;;;;;;4.15;3.25;;;;;;;13.12;100.00;95668.31;1095965;26;19998;-71
2024/04/15 01:33:28;;;;;;;3.33;2.40;;;;;;;13.16;100.00;95653.50;1089425;27;19998;-71
2024/04/15 01:33:58;;;;;;;7.30;3.00;;;;;;;13.26;100.00;95653.41;1103248;26;20011;-71
2024/04/15 01:34:29;;;;;;;5.90;2.75;;;;;;;13.29;100.00;95637.03;1118025;26;20015;-71
2024/04/15 01:34:59;;;;;;;4.20;2.80;;;;;;;13.25;100.00;95625.50;1115345;26;20081;-71
2024/04/15 01:35:30;;;;;;;4.43;2.75;;;;;;;13.25;100.00;95622.88;1103226;26;19998;-71
2024/04/15 01:36:00;;;;;;;5.93;2.83;;;;;;;13.24;100.00;95618.63;1096158;27;20358;-71
2024/04/15 01:36:30;;;;;;;3.95;2.88;;;;;;;13.32;100.00;95631.22;1089229;27;20025;-71
2024/04/15 01:37:01;;;;;;;6.82;2.58;;;;;;;13.30;100.00;95630.69;1089243;27;20018;-71
2024/04/15 01:37:32;;;;;;;5.30;3.15;;;;;;;13.34;100.00;95621.16;1082123;27;19999;-71
2024/04/15 01:38:03;;;;;;;5.25;2.78;;;;;;;13.34;100.00;95617.72;1082533;27;20074;-71
2024/04/15 01:38:34;;;;;;;3.38;2.67;;;;;;;13.41;100.00;95623.44;1082400;27;20383;-71
2024/04/15 01:39:04;;;;;;;3.58;3.03;;;;;;;13.38;100.00;95619.53;1090048;26;20919;-71
2024/04/15 01:39:34;;;;;;;6.20;2.72;;;;;;;13.38;100.00;95608.19;1109808;26;20000;-70
2024/04/15 01:40:05;;;;;;;3.15;2.67;;;;;;;13.37;100.00;95612.69;1096211;26;22436;-71
2024/04/15 01:40:36;;;;;;;3.60;3.00;;;;;;;13.29;100.00;95600.16;1095568;26;20378;-71
2024/04/15 01:41:06;;;;;;;5.47;2.72;;;;;;;13.36;100.00;95603.22;1085463;26;20012;-71
2024/04/15 01:41:37;;;;;;;4.13;2.75;;;;;;;13.32;100.00;95599.59;1084638;27;20009;-72
2024/04/15 01:42:08;;;;;;;4.88;3.10;;;;;;;13.31;100.00;95598.03;1090402;27;19998;-72
2024/04/15 01:42:38;;;;;;;4.18;2.92;;;;;;;13.35;100.00;95606.16;1096203;27;20452;-72
2024/04/15 01:43:08;;;;;;;3.75;3.10;;;;;;;13.36;100.00;95605.06;1103156;26;19997;-71
2024/04/15 01:43:39;;;;;;;4.28;2.95;;;;;;;13.33;100.00;95605.63;1096106;27;20005;-71
2024/04/15 01:44:09;;;;;;;5.15;3.05;;;;;;;13.31;100.00;95598.03;1088979;26;20147;-71
2024/04/15 01:44:40;;;;;;;4.63;3.15;;;;;;;13.30;100.00;95599.06;1103530;26;20008;-71
2024/04/15 01:45:11;;;;;;;4.07;3.25;;;;;;;13.27;100.00;95607.53;1110478;26;20000;-71
2024/04/15 01:45:41;;;;;;;3.85;3.08;;;;;;;13.20;100.00;95596.53;1112668;26;20656;-71
2024/04/15 01:46:11;;;;;;;3.33;2.90;;;;;;;13.25;100.00;95606.28;1117868;26;20003;-71
2024/04/15 01:46:42;;;;;;;5.72;2.97;;;;;;;13.20;100.00;95605.22;1107927;26;20506;-71
2024/04/15 01:47:12;;;;;;;3.75;2.80;;;;;;;13.17;100.00;95607.63;1103464;26;20395;-71
2024/04/15 01:47:45;;;;;;;4.50;2.92;;;;;;;13.16;100.00;95600.81;1108090;26;20074;-71
2024/04/15 01:48:16;;;;;;;3.67;3.05;;;;;;;13.10;100.00;95597.44;1096442;26;20004;-71
2024/04/15 01:48:46;;;;;;;4.63;2.95;;;;;;;13.15;100.00;95605.28;1099521;26;20012;-71
2024/04/15 01:49:17;;;;;;;5.38;3.20;;;;;;;13.16;100.00;95606.06;1103323;26;20008;-71
2024/04/15 01:49:47;;;;;;;3.78;3.00;;;;;;;13.09;100.00;95592.47;1096029;26;20342;-71
2024/04/15 01:50:19;;;;;;;3.25;2.78;;;;;;;13.14;100.00;95602.91;1089203;26;20026;-71
2024/04/15 01:50:50;;;;;;;3.92;3.15;;;;;;;13.10;100.00;95596.66;1089064;27;20073;-72
2024/04/15 01:51:20;;;;;;;4.28;3.00;;;;;;;13.15;100.00;95600.03;1082355;27;19999;-71
2024/04/15 01:51:51;;;;;;;7.60;3.08;;;;;;;13.15;100.00;95600.03;1093462;27;20021;-72
2024/04/15 01:52:21;;;;;;;5.22;3.10;;;;;;;13.15;100.00;95604.50;1110286;26;20007;-71
2024/04/15 01:52:52;;;;;;;5.35;2.80;;;;;;;13.14;100.00;95592.38;1110535;26;20007;-71
2024/04/15 01:53:22;;;;;;;3.33;2.75;;;;;;;13.12;100.00;95600.59;1110549;26;20074;-71
2024/04/15 01:53:52;;;;;;;4.85;2.80;;;;;;;13.13;100.00;95596.09;1112830;26;20716;-72
2024/04/15 01:54:23;;;;;;;5.20;2.85;;;;;;;13.15;100.00;95596.59;1096249;27;20381;-71
2024/04/15 01:54:53;;;;;;;3.30;2.78;;;;;;;13.14;100.00;95597.66;1101503;26;20407;-72
2024/04/15 01:55:24;;;;;;;3.28;2.55;;;;;;;13.13;100.00;95594.25;1103149;26;20025;-72
2024/04/15 01:55:54;;;;;;;4.82;2.88;;;;;;;13.13;100.00;95601.38;1096252;27;20078;-71
2024/04/15 01:56:25;;;;;;;4.20;2.25;;;;;;;13.16;100.00;95591.03;1096396;27;19998;-71
2024/04/15 01:56:55;;;;;;;3.90;2.72;;;;;;;13.18;100.00;95588.91;1089025;27;19999;-71
2024/04/15 01:57:25;;;;;;;5.63;3.35;;;;;;;13.17;100.00;95597.88;1089261;27;20009;-71
2024/04/15 01:57:56;;;;;;;4.65;3.13;;;;;;;13.18;100.00;95588.16;1096111;26;20014;-72
2024/04/15 01:58:26;;;;;;;6.70;3.10;;;;;;;13.20;100.00;95591.25;1110657;26;20008;-72
2024/04/15 01:58:57;;;;;;;3.80;2.90;;;;;;;13.19;100.00;95594.97;1110578;26;20000;-72
2024/04/15 01:59:27;;;;;;;3.25;2.50;;;;;;;13.20;100.00;95591.25;1118086;26;20011;-72
2024/04/15 01:59:58;;;;;;;4.32;2.60;;;;;;;13.19;100.00;95590.47;1102474;26;20016;-72
2024/04/15 02:00:28;;;;;;;4.07;2.67;;;;;;;13.16;100.00;95577.09;1103439;26;20001;-72
2024/04/15 02:01:03;;;;;;;4.53;2.83;;;;;;;13.23;100.00;95595.97;1104645;26;20013;-72
2024/04/15 02:01:37;;;;;;;4.47;2.70;;;;;;;13.25;100.00;95585.97;1098471;26;20002;-72
2024/04/15 02:02:07;;;;;;;3.55;2.78;;;;;;;13.29;100.00;95589.59;1103440;26;20002;-71
2024/04/15 02:02:38;;;;;;;6.07;2.67;;;;;;;13.31;100.00;95587.47;1103718;26;20000;-72
2024/04/15 02:03:08;;;;;;;3.72;2.40;;;;;;;13.29;100.00;95578.28;1096914;26;20009;-71
2024/04/15 02:03:39;;;;;;;5.28;2.67;;;;;;;13.27;100.00;95581.19;1097545;26;20006;-72
2024/04/15 02:04:09;;;;;;;5.78;2.67;;;;;;;13.29;100.00;95580.91;1111120;26;20037;-71
2024/04/15 02:04:40;;;;;;;3.50;2.50;;;;;;;13.26;100.00;95584.91;1108118;26;20467;-72
2024/04/15 02:05:10;;;;;;;3.63;2.78;;;;;;;13.29;100.00;95576.44;1089523;26;20351;-71
2024/04/15 02:05:41;;;;;;;3.78;2.78;;;;;;;13.26;100.00;95563.03;1089190;27;20009;-72
2024/04/15 02:06:11;;;;;;;2.97;2.45;;;;;;;13.30;100.00;95570.09;1082159;27;20007;-71
2024/04/15 02:06:42;;;;;;;3.45;2.80;;;;;;;13.31;100.00;95571.66;1082174;27;20359;-71
2024/04/15 02:07:12;;;;;;;4.47;3.08;;;;;;;13.30;100.00;95575.34;1089044;27;20448;-72
2024/04/15 02:07:43;;;;;;;2.92;2.60;;;;;;;13.34;100.00;95575.56;1081961;27;20740;-72
2024/04/15 02:08:13;;;;;;;4.93;2.78;;;;;;;13.38;100.00;95569.47;1082328;27;20351;-71
2024/04/15 02:08:44;;;;;;;5.18;2.83;;;;;;;13.41;100.00;95565.47;1096119;26;19998;-72
2024/04/15 02:09:14;;;;;;;2.42;2.00;;;;;;;13.49;100.00;95564.84;1096184;26;20005;-71
2024/04/15 02:09:44;;;;;;;6.10;2.78;;;;;;;13.52;100.00;95555.59;1109501;26;20090;-71
2024/04/15 02:10:15;;;;;;;4.65;2.83;;;;;;;13.57;100.00;95547.59;1096217;27;20085;-73
2024/04/15 02:10:46;;;;;;;3.25;2.50;;;;;;;13.60;100.00;95552.28;1089185;27;20008;-72
2024/04/15 02:11:16;;;;;;;3.40;2.55;;;;;;;13.63;100.00;95555.13;1088922;27;20006;-72
2024/04/15 02:11:46;;;;;;;4.78;2.40;;;;;;;13.62;100.00;95560.72;1096420;26;19993;-73
2024/04/15 02:12:17;;;;;;;5.63;2.83;;;;;;;13.47;100.00;95550.38;1110658;26;20075;-72
2024/04/15 02:12:47;;;;;;;4.53;2.97;;;;;;;13.47;100.00;95569.59;1110669;26;20012;-71
2024/04/15 02:13:18;;;;;;;3.55;2.60;;;;;;;13.41;100.00;95576.81;1104150;26;20555;-72
2024/04/15 02:13:48;;;;;;;3.53;2.78;;;;;;;13.47;100.00;95593.31;1104662;26;20607;-72
2024/04/15 02:14:18;;;;;;;4.57;2.47;;;;;;;13.46;100.00;95594.41;1096350;26;20049;-71
2024/04/15 02:14:49;;;;;;;3.28;2.85;;;;;;;13.38;100.00;95597.66;1096500;26;20558;-72
2024/04/15 02:15:19;;;;;;;3.13;2.58;;;;;;;13.34;100.00;95597.44;1096040;27;20001;-72
2024/04/15 02:15:50;;;;;;;4.53;2.67;;;;;;;13.31;100.00;95598.03;1096300;26;20004;-71
2024/04/15 02:16:20;;;;;;;6.13;3.25;;;;;;;13.28;100.00;95597.78;1110506;26;20004;-72
2024/04/15 02:16:51;;;;;;;3.17;2.45;;;;;;;13.21;100.00;95585.72;1110443;26;20503;-72
2024/04/15 02:17:21;;;;;;;4.05;2.70;;;;;;;13.25;100.00;95593.88;1110540;26;20360;-71
2024/04/15 02:17:52;;;;;;;3.40;2.45;;;;;;;13.21;100.00;95596.25;1108635;26;20028;-72
2024/04/15 02:18:22;;;;;;;3.20;2.53;;;;;;;13.17;100.00;95600.50;1096130;27;20454;-72
2024/04/15 02:18:52;;;;;;;4.88;2.63;;;;;;;13.15;100.00;95599.25;1081980;27;20717;-71
2024/04/15 02:19:23;;;;;;;5.28;3.30;;;;;;;13.14;100.00;95595.03;1088835;27;20010;-71
2024/04/15 02:19:54;;;;;;;4.80;3.03;;;;;;;13.07;100.00;95581.41;1095513;27;19998;-71
2024/04/15 02:20:24;;;;;;;5.05;3.08;;;;;;;13.10;100.00;95586.91;1082324;27;20597;-71
2024/04/15 02:20:55;;;;;;;3.15;2.75;;;;;;;13.07;100.00;95589.31;1094317;26;20484;-72
2024/04/15 02:21:25;;;;;;;4.40;3.25;;;;;;;13.04;100.00;95587.25;1096154;26;20016;-71
2024/04/15 02:21:55;;;;;;;4.53;2.97;;;;;;;13.04;100.00;95581.97;1102386;26;20457;-72
2024/04/15 02:22:26;;;;;;;3.65;2.80;;;;;;;13.03;100.00;95580.41;1103595;26;20435;-71